createdAt,value
2024-02-29T00:01:11.227Z,8.90
2024-02-29T00:06:17.807Z,8.50
2024-02-29T00:11:22.493Z,9.50
2024-02-29T00:16:26.008Z,8.80
2024-02-29T00:21:30.680Z,8.30
2024-02-29T00:26:33.642Z,8.60
2024-02-29T00:31:36.876Z,6.80
2024-02-29T00:36:40.769Z,5.40
2024-02-29T00:41:43.755Z,5.40
2024-02-29T00:46:46.593Z,5.90
2024-02-29T00:51:49.527Z,5.50
2024-02-29T00:56:52.581Z,5.00
2024-02-29T01:01:57.051Z,3.80
2024-02-29T01:07:00.128Z,5.00
2024-02-29T01:12:03.061Z,5.00
2024-02-29T01:17:06.007Z,4.90
2024-02-29T01:22:09.072Z,5.10
2024-02-29T01:27:11.999Z,4.80
2024-02-29T01:32:19.237Z,5.10
2024-02-29T01:37:29.228Z,4.80
2024-02-29T01:42:32.186Z,5.50
2024-02-29T01:47:35.209Z,5.20
2024-02-29T01:52:41.661Z,5.50
2024-02-29T01:57:45.284Z,5.90
2024-02-29T02:02:48.532Z,6.50
2024-02-29T02:07:52.361Z,6.70
2024-02-29T02:12:55.260Z,6.40
2024-02-29T02:17:58.164Z,7.40
2024-02-29T02:23:01.277Z,7.20
2024-02-29T02:28:04.816Z,8.30
2024-02-29T02:33:08.945Z,8.00
2024-02-29T02:38:11.918Z,9.10
2024-02-29T02:43:15.096Z,9.20
2024-02-29T02:48:17.998Z,9.90
2024-02-29T02:53:21.085Z,6.90
2024-02-29T02:58:24.441Z,5.20
2024-02-29T03:03:27.306Z,5.10
2024-02-29T03:08:30.390Z,4.90
2024-02-29T03:13:33.285Z,4.90
2024-02-29T03:18:36.602Z,5.00
2024-02-29T03:23:39.512Z,4.80
2024-02-29T03:28:43.183Z,5.00
2024-02-29T03:33:46.106Z,4.20
2024-02-29T03:38:51.549Z,5.20
2024-02-29T03:43:54.408Z,2.90
2024-02-29T03:48:57.530Z,4.70
2024-02-29T03:54:00.619Z,6.50
2024-02-29T03:59:03.644Z,5.40
2024-02-29T04:04:07.050Z,4.90
2024-02-29T04:09:10.762Z,4.60
2024-02-29T04:14:13.751Z,5.10
2024-02-29T04:19:17.976Z,5.10
2024-02-29T04:24:21.765Z,6.20
2024-02-29T04:29:24.653Z,5.70
2024-02-29T04:34:28.849Z,6.40
2024-02-29T04:39:31.857Z,5.90
2024-02-29T04:44:34.691Z,6.50
2024-02-29T04:49:37.585Z,6.10
2024-02-29T04:54:40.469Z,4.80
2024-02-29T04:59:43.639Z,6.50
2024-02-29T05:04:49.374Z,5.30
2024-02-29T05:09:52.390Z,5.60
2024-02-29T05:14:55.482Z,6.20
2024-02-29T05:19:59.916Z,7.70
2024-02-29T05:25:03.234Z,12.20
2024-02-29T05:30:06.869Z,14.70
2024-02-29T05:35:09.860Z,8.90
2024-02-29T05:40:14.452Z,7.10
2024-02-29T05:45:17.606Z,6.20
2024-02-29T05:50:20.543Z,6.30
2024-02-29T05:55:23.497Z,8.60
2024-02-29T06:00:26.518Z,8.10
2024-02-29T06:05:31.140Z,6.40
2024-02-29T06:10:34.395Z,6.30
2024-02-29T06:15:37.749Z,7.00
2024-02-29T06:20:41.251Z,8.10
2024-02-29T06:25:44.533Z,6.20
2024-02-29T06:30:48.952Z,4.30
2024-02-29T06:35:52.532Z,7.40
2024-02-29T06:40:56.193Z,6.90
2024-02-29T06:46:04.908Z,6.70
2024-02-29T06:51:07.923Z,6.10
2024-02-29T06:56:12.196Z,6.40
2024-02-29T07:01:15.459Z,5.70
2024-02-29T07:06:18.400Z,5.60
2024-02-29T07:11:22.015Z,7.50
2024-02-29T07:16:25.799Z,5.60
2024-02-29T07:21:28.926Z,5.70
2024-02-29T07:26:32.105Z,7.50
2024-02-29T07:31:35.562Z,6.00
2024-02-29T07:36:38.790Z,5.80
2024-02-29T07:41:42.197Z,6.20
2024-02-29T07:46:45.140Z,6.40
2024-02-29T07:51:48.070Z,6.00
2024-02-29T07:56:51.085Z,6.00
2024-02-29T08:01:56.812Z,5.80
2024-02-29T08:06:59.875Z,5.50
2024-02-29T08:12:04.317Z,4.80
2024-02-29T08:17:07.189Z,4.80
2024-02-29T08:22:10.269Z,4.50
2024-02-29T08:27:14.207Z,5.50
2024-02-29T08:32:17.198Z,5.30
2024-02-29T08:37:20.187Z,5.30
2024-02-29T08:42:23.049Z,4.50
2024-02-29T08:47:27.932Z,5.10
2024-02-29T08:52:33.101Z,5.70
2024-02-29T08:57:36.965Z,6.00
2024-02-29T09:02:40.060Z,5.30
2024-02-29T09:07:43.063Z,4.60
2024-02-29T09:12:46.065Z,5.50
2024-02-29T09:17:49.093Z,5.60
2024-02-29T09:22:52.382Z,4.70
2024-02-29T09:27:55.422Z,4.30
2024-02-29T09:32:58.367Z,4.60
2024-02-29T09:38:01.308Z,8.20
2024-02-29T09:43:06.302Z,6.60
2024-02-29T09:48:12.334Z,6.30
2024-02-29T09:53:16.781Z,6.60
2024-02-29T09:58:22.046Z,6.60
2024-02-29T10:03:26.129Z,7.40
2024-02-29T10:08:29.412Z,6.40
2024-02-29T10:13:47.880Z,6.90
2024-02-29T10:18:51.144Z,6.00
2024-02-29T10:23:57.634Z,5.70
2024-02-29T10:29:10.382Z,5.90
2024-02-29T10:34:14.136Z,5.50
2024-02-29T10:39:17.033Z,5.70
2024-02-29T10:44:23.276Z,6.00
2024-02-29T10:49:34.739Z,5.00
2024-02-29T10:54:51.413Z,5.30
2024-02-29T11:00:02.499Z,5.60
2024-02-29T11:05:07.550Z,5.30
2024-02-29T11:10:10.949Z,4.90
2024-02-29T11:15:14.199Z,5.10
2024-02-29T11:20:21.764Z,5.30
2024-02-29T11:25:25.197Z,5.60
2024-02-29T11:30:31.991Z,5.60
2024-02-29T11:35:35.107Z,5.80
2024-02-29T11:40:40.897Z,4.40
2024-02-29T11:45:43.873Z,4.60
2024-02-29T11:50:47.176Z,6.00
2024-02-29T11:55:59.063Z,3.80
2024-02-29T12:01:07.109Z,5.40
2024-02-29T12:06:09.997Z,6.10
2024-02-29T12:11:13.770Z,6.10
2024-02-29T12:16:16.777Z,6.30
2024-02-29T12:21:20.093Z,7.10
2024-02-29T12:26:23.588Z,8.80
2024-02-29T12:31:26.742Z,6.80
2024-02-29T12:36:30.016Z,6.90
2024-02-29T12:41:33.356Z,6.20
2024-02-29T12:46:36.282Z,6.20
2024-02-29T12:51:39.262Z,5.80
2024-02-29T12:56:42.333Z,5.20
2024-02-29T13:01:45.451Z,5.80
2024-02-29T13:06:48.473Z,5.60
2024-02-29T13:11:51.396Z,6.50
2024-02-29T13:16:55.455Z,5.20
2024-02-29T13:21:59.837Z,5.10
2024-02-29T13:27:02.934Z,5.80
2024-02-29T13:32:06.004Z,6.30
2024-02-29T13:37:08.986Z,5.80
2024-02-29T13:42:12.622Z,6.00
2024-02-29T13:47:15.570Z,5.70
2024-02-29T13:52:19.233Z,5.80
2024-02-29T13:57:22.344Z,5.30
2024-02-29T14:02:26.072Z,5.20
2024-02-29T14:07:29.333Z,5.20
2024-02-29T14:12:34.756Z,4.90
2024-02-29T14:17:39.872Z,5.80
2024-02-29T14:22:43.001Z,5.60
2024-02-29T14:27:46.443Z,5.00
2024-02-29T14:32:49.793Z,5.90
2024-02-29T14:37:53.044Z,6.10
2024-02-29T14:42:56.797Z,5.50
2024-02-29T14:47:59.973Z,5.20
2024-02-29T14:53:02.905Z,4.70
2024-02-29T14:58:06.396Z,5.20
2024-02-29T15:03:10.481Z,5.30
2024-02-29T15:08:13.468Z,5.30
2024-02-29T15:13:16.539Z,5.80
2024-02-29T15:18:19.991Z,5.70
2024-02-29T15:23:25.176Z,5.50
2024-02-29T15:28:33.284Z,5.50
2024-02-29T15:38:39.832Z,6.10
2024-02-29T15:43:42.980Z,8.00
2024-02-29T15:48:46.031Z,8.30
2024-02-29T15:53:48.965Z,6.20
2024-02-29T15:58:53.009Z,6.10
2024-02-29T16:03:56.167Z,6.50
2024-02-29T16:09:00.668Z,6.30
2024-02-29T16:14:03.707Z,6.80
2024-02-29T16:19:06.606Z,6.80
2024-02-29T16:24:09.623Z,6.80
2024-02-29T16:29:13.724Z,6.00
2024-02-29T16:34:16.841Z,5.90
2024-02-29T16:39:19.912Z,4.70
2024-02-29T16:44:25.117Z,4.90
2024-02-29T16:49:28.106Z,5.30
2024-02-29T16:54:31.550Z,6.00
2024-02-29T16:59:35.660Z,5.90
2024-02-29T17:04:38.609Z,5.70
2024-02-29T17:09:41.538Z,6.00
2024-02-29T17:14:44.492Z,7.10
2024-02-29T17:19:47.989Z,6.70
2024-02-29T17:24:50.954Z,6.20
2024-02-29T17:29:54.119Z,6.30
2024-02-29T17:34:57.233Z,6.70
2024-02-29T17:40:00.573Z,6.30
2024-02-29T17:45:04.458Z,6.90
2024-02-29T17:50:18.576Z,7.20
2024-02-29T17:55:21.643Z,7.10
2024-02-29T18:00:24.620Z,6.30
2024-02-29T18:05:28.247Z,7.40
2024-02-29T18:10:31.652Z,6.30
2024-02-29T18:15:34.653Z,7.20
2024-02-29T18:20:38.186Z,7.20
2024-02-29T18:25:43.236Z,7.30
2024-02-29T18:30:49.337Z,7.50
2024-02-29T18:35:52.610Z,7.60
2024-02-29T18:40:55.980Z,7.40
2024-02-29T18:46:05.515Z,7.70
2024-02-29T18:51:10.009Z,7.90
2024-02-29T18:56:12.982Z,8.10
2024-02-29T19:01:16.105Z,8.60
2024-02-29T19:06:19.313Z,8.40
2024-02-29T19:11:22.405Z,8.50
2024-02-29T19:16:25.442Z,7.60
2024-02-29T19:21:28.395Z,8.60
2024-02-29T19:26:31.298Z,9.40
2024-02-29T19:31:36.384Z,6.80
2024-02-29T19:36:39.381Z,10.10
2024-02-29T19:41:46.024Z,9.30
2024-02-29T19:46:49.323Z,10.10
2024-02-29T19:51:52.318Z,10.00
2024-02-29T19:56:55.434Z,9.20
2024-02-29T20:01:58.316Z,10.30
2024-02-29T20:07:01.536Z,9.50
2024-02-29T20:12:05.535Z,9.90
2024-02-29T20:17:09.022Z,8.80
2024-02-29T20:22:11.980Z,10.30
2024-02-29T20:27:15.164Z,9.70
2024-02-29T20:32:18.696Z,9.20
2024-02-29T20:37:22.018Z,7.90
2024-02-29T20:42:25.635Z,9.70
2024-02-29T20:47:28.680Z,10.10
2024-02-29T20:52:32.728Z,10.70
2024-02-29T20:57:37.070Z,10.60
2024-02-29T21:02:40.075Z,9.50
2024-02-29T21:07:44.846Z,8.90
2024-02-29T21:12:47.896Z,9.00
2024-02-29T21:17:52.147Z,9.70
2024-02-29T21:22:55.046Z,9.40
2024-02-29T21:27:57.977Z,10.40
2024-02-29T21:33:01.129Z,11.30
2024-02-29T21:38:04.560Z,8.50
2024-02-29T21:43:07.465Z,11.30
2024-02-29T21:48:10.513Z,9.80
2024-02-29T21:53:13.462Z,10.10
2024-02-29T21:58:16.799Z,10.70
2024-02-29T22:03:21.016Z,11.00
2024-02-29T22:08:25.246Z,10.20
2024-02-29T22:13:28.353Z,9.90
2024-02-29T22:18:31.402Z,10.80
2024-02-29T22:23:34.548Z,10.40
2024-02-29T22:28:37.699Z,10.70
2024-02-29T22:33:40.818Z,10.20
2024-02-29T22:38:43.652Z,10.20
2024-02-29T22:43:46.665Z,10.70
2024-02-29T22:48:49.549Z,10.20
2024-02-29T22:53:52.504Z,10.10
2024-02-29T22:58:55.401Z,7.40
2024-02-29T23:03:58.294Z,9.60
2024-02-29T23:09:01.218Z,10.90
2024-02-29T23:14:04.634Z,10.00
2024-02-29T23:19:07.569Z,10.30
2024-02-29T23:24:11.010Z,9.30
2024-02-29T23:29:14.402Z,10.10
2024-02-29T23:34:17.320Z,11.40
2024-02-29T23:39:20.274Z,10.40
2024-02-29T23:44:23.167Z,10.30
2024-02-29T23:49:26.153Z,10.00
2024-02-29T23:54:29.842Z,10.00
2024-02-29T23:59:32.719Z,9.80
